createdAt,value
2017-01-07T00:03:11.388Z,-2.54
2017-01-07T00:06:15.700Z,-2.58
2017-01-07T00:09:20.076Z,-2.56
2017-01-07T00:12:24.875Z,-2.58
2017-01-07T00:15:24.820Z,-2.57
2017-01-07T00:18:35.034Z,-2.60
2017-01-07T00:21:39.883Z,-2.61
2017-01-07T00:24:44.523Z,-2.60
2017-01-07T00:27:49.404Z,-2.51
2017-01-07T00:30:54.294Z,-2.47
2017-01-07T00:33:59.110Z,-2.49
2017-01-07T00:40:09.077Z,-2.53
2017-01-07T00:43:14.017Z,-2.51
2017-01-07T00:46:13.985Z,-2.51
2017-01-07T00:49:24.298Z,-2.52
2017-01-07T00:52:24.140Z,-2.51
2017-01-07T00:55:34.384Z,-2.50
2017-01-07T00:58:39.288Z,-2.50
2017-01-07T01:04:49.378Z,-2.55
2017-01-07T01:07:54.258Z,-2.58
2017-01-07T01:10:54.161Z,-2.63
2017-01-07T01:14:04.155Z,-2.60
2017-01-07T01:17:09.128Z,-2.63
2017-01-07T01:20:14.064Z,-2.66
2017-01-07T01:26:24.019Z,-2.67
2017-01-07T01:29:28.839Z,-2.69
2017-01-07T01:32:33.781Z,-2.67
2017-01-07T01:35:38.624Z,-2.70
2017-01-07T01:38:43.517Z,-2.74
2017-01-07T01:41:48.567Z,-2.76
2017-01-07T01:44:53.383Z,-2.75
2017-01-07T01:47:53.269Z,-2.78
2017-01-07T01:54:09.078Z,-2.74
2017-01-07T01:57:14.097Z,-2.73
2017-01-07T02:00:18.900Z,-2.75
2017-01-07T02:03:23.815Z,-2.74
2017-01-07T02:06:23.663Z,-2.75
2017-01-07T02:09:33.984Z,-2.74
2017-01-07T02:12:38.774Z,-2.74
2017-01-07T02:15:43.632Z,-2.75
2017-01-07T02:18:48.622Z,-2.77
2017-01-07T02:21:53.502Z,-2.80
2017-01-07T02:24:58.442Z,-2.78
2017-01-07T02:28:03.251Z,-2.80
2017-01-07T02:34:12.812Z,-2.76
2017-01-07T02:37:17.808Z,-2.77
2017-01-07T02:40:22.528Z,-2.77
2017-01-07T02:43:27.459Z,-2.80
2017-01-07T02:46:32.331Z,-2.80
2017-01-07T02:49:37.309Z,-2.84
2017-01-07T02:52:42.237Z,-2.80
2017-01-07T02:55:47.044Z,-2.82
2017-01-07T02:58:46.746Z,-2.83
2017-01-07T03:01:51.948Z,-2.87
2017-01-07T03:04:57.127Z,-2.89
2017-01-07T03:08:07.511Z,-2.88
2017-01-07T03:11:12.316Z,-2.87
2017-01-07T03:14:17.272Z,-2.86
2017-01-07T03:17:22.099Z,-2.84
2017-01-07T03:20:27.016Z,-2.78
2017-01-07T03:23:31.850Z,-2.75
2017-01-07T03:26:36.707Z,-2.73
2017-01-07T03:29:41.531Z,-2.73
2017-01-07T03:32:46.399Z,-2.69
2017-01-07T03:35:51.272Z,-2.69
2017-01-07T03:38:56.243Z,-2.67
2017-01-07T03:42:01.121Z,-2.71
2017-01-07T03:45:05.941Z,-2.72
2017-01-07T03:48:05.881Z,-2.72
2017-01-07T03:51:16.029Z,-2.73
2017-01-07T03:54:20.922Z,-2.74
2017-01-07T03:57:25.842Z,-2.71
2017-01-07T04:00:25.664Z,-2.65
2017-01-07T04:03:36.018Z,-2.62
2017-01-07T04:06:41.033Z,-2.58
2017-01-07T04:09:46.092Z,-2.54
2017-01-07T04:12:50.861Z,-2.62
2017-01-07T04:15:55.780Z,-2.70
2017-01-07T04:18:55.602Z,-2.77
2017-01-07T04:22:05.891Z,-2.85
2017-01-07T04:25:05.807Z,-2.86
2017-01-07T04:28:16.028Z,-2.91
2017-01-07T04:31:20.569Z,-2.89
2017-01-07T04:34:25.493Z,-2.90
2017-01-07T04:37:30.269Z,-2.90
2017-01-07T04:43:40.854Z,-2.89
2017-01-07T04:46:45.788Z,-2.86
2017-01-07T04:49:50.557Z,-2.90
2017-01-07T04:52:55.340Z,-2.93
2017-01-07T04:56:00.272Z,-2.88
2017-01-07T04:59:00.266Z,-2.88
2017-01-07T05:02:10.481Z,-2.89
2017-01-07T05:08:15.553Z,-2.85
2017-01-07T05:11:25.906Z,-2.84
2017-01-07T05:14:30.834Z,-2.85
2017-01-07T05:17:35.746Z,-2.87
2017-01-07T05:20:40.781Z,-2.88
2017-01-07T05:23:40.717Z,-2.87
2017-01-07T05:26:51.112Z,-2.86
2017-01-07T05:29:55.934Z,-2.85
2017-01-07T05:33:00.801Z,-2.84
2017-01-07T05:36:05.344Z,-2.83
2017-01-07T05:39:05.255Z,-2.79
2017-01-07T05:45:20.632Z,-2.81
2017-01-07T05:48:20.493Z,-2.83
2017-01-07T05:51:30.985Z,-2.85
2017-01-07T05:54:30.947Z,-2.87
2017-01-07T05:57:41.349Z,-2.88
2017-01-07T06:00:41.369Z,-2.91
2017-01-07T06:03:51.725Z,-2.91
2017-01-07T06:06:56.698Z,-2.95
2017-01-07T06:10:01.593Z,-2.99
2017-01-07T06:13:06.472Z,-2.98
2017-01-07T06:16:11.476Z,-1.04
2017-01-07T06:19:16.337Z,-1.05
2017-01-07T06:22:21.339Z,-1.11
2017-01-07T06:25:26.069Z,-1.15
2017-01-07T06:28:30.635Z,-1.15
2017-01-07T06:31:35.433Z,-1.16
2017-01-07T06:34:40.366Z,-1.12
2017-01-07T06:37:40.363Z,-1.13
2017-01-07T06:40:45.657Z,-1.16
2017-01-07T06:43:56.051Z,-1.18
2017-01-07T06:47:00.902Z,-1.19
2017-01-07T06:50:05.827Z,-1.17
2017-01-07T06:53:10.691Z,-1.22
2017-01-07T06:56:10.733Z,-1.22
2017-01-07T06:59:21.037Z,-1.22
2017-01-07T07:02:25.933Z,-1.23
2017-01-07T07:05:30.945Z,-1.24
2017-01-07T07:08:35.595Z,-1.24
2017-01-07T07:11:40.629Z,-1.24
2017-01-07T07:14:45.425Z,-1.22
2017-01-07T07:17:50.401Z,-1.19
2017-01-07T07:20:55.231Z,-1.20
2017-01-07T07:24:00.139Z,-1.23
2017-01-07T07:27:04.900Z,-1.26
2017-01-07T07:30:09.956Z,-1.32
2017-01-07T07:33:09.827Z,-1.36
2017-01-07T07:36:20.215Z,-1.42
2017-01-07T07:39:18.944Z,-1.47
2017-01-07T07:42:28.885Z,-1.47
2017-01-07T07:45:28.803Z,-1.47
2017-01-07T07:48:39.111Z,-1.46
2017-01-07T07:54:49.458Z,-1.51
2017-01-07T07:57:54.441Z,-1.53
2017-01-07T08:00:59.071Z,-1.53
2017-01-07T08:04:03.802Z,-1.54
2017-01-07T08:07:08.659Z,-1.55
2017-01-07T08:10:08.606Z,-1.54
2017-01-07T08:13:18.875Z,-1.55
2017-01-07T08:16:23.724Z,-1.56
2017-01-07T08:19:28.474Z,-1.57
2017-01-07T08:22:28.401Z,-1.62
2017-01-07T08:25:38.770Z,-1.64
2017-01-07T08:28:43.604Z,-1.65
2017-01-07T08:31:43.589Z,-1.68
2017-01-07T08:34:53.708Z,-1.74
2017-01-07T08:37:58.703Z,-1.80
2017-01-07T08:40:58.731Z,-1.79
2017-01-07T08:44:08.781Z,-1.79
2017-01-07T08:47:13.651Z,-1.76
2017-01-07T08:50:18.585Z,-1.79
2017-01-07T08:53:19.129Z,-1.77
2017-01-07T08:56:24.341Z,-1.79
2017-01-07T08:59:29.554Z,-1.82
2017-01-07T09:02:35.029Z,-1.82
2017-01-07T09:05:45.228Z,-1.82
2017-01-07T09:08:50.169Z,-1.87
2017-01-07T09:11:55.144Z,-1.90
2017-01-07T09:15:00.049Z,-1.94
2017-01-07T09:18:04.984Z,-1.95
2017-01-07T09:21:09.946Z,-1.99
2017-01-07T09:24:14.881Z,0.02
2017-01-07T09:27:19.753Z,0.05
2017-01-07T09:30:24.735Z,0.10
2017-01-07T09:33:24.549Z,0.12
2017-01-07T09:36:34.893Z,0.16
2017-01-07T09:39:39.943Z,0.17
2017-01-07T09:42:39.878Z,0.21
2017-01-07T09:45:50.159Z,0.25
2017-01-07T09:48:55.194Z,0.23
2017-01-07T09:51:55.106Z,0.23
2017-01-07T09:55:05.394Z,0.24
2017-01-07T09:58:10.206Z,0.24
2017-01-07T10:01:15.255Z,0.26
2017-01-07T10:04:15.262Z,0.29
2017-01-07T10:07:20.663Z,0.33
2017-01-07T10:10:26.041Z,0.32
2017-01-07T10:13:36.535Z,0.29
2017-01-07T10:16:41.471Z,0.27
2017-01-07T10:19:46.401Z,0.22
2017-01-07T10:22:51.321Z,0.24
2017-01-07T10:25:56.270Z,0.23
2017-01-07T10:29:01.161Z,0.23
2017-01-07T10:32:06.045Z,0.22
2017-01-07T10:35:06.056Z,0.26
2017-01-07T10:38:10.997Z,0.27
2017-01-07T10:41:21.434Z,0.32
2017-01-07T10:44:26.496Z,0.27
2017-01-07T10:47:31.517Z,0.27
2017-01-07T10:50:31.165Z,0.28
2017-01-07T10:53:41.535Z,0.32
2017-01-07T10:56:46.536Z,0.35
2017-01-07T10:59:51.494Z,0.34
2017-01-07T11:02:56.418Z,0.36
2017-01-07T11:06:01.339Z,0.41
2017-01-07T11:09:06.340Z,0.45
2017-01-07T11:15:16.682Z,0.41
2017-01-07T11:18:21.812Z,0.43
2017-01-07T11:21:26.752Z,0.41
2017-01-07T11:24:31.717Z,0.38
2017-01-07T11:27:36.817Z,0.43
2017-01-07T11:30:41.858Z,0.47
2017-01-07T11:33:46.889Z,0.44
2017-01-07T11:36:46.848Z,0.48
2017-01-07T11:43:03.155Z,0.48
2017-01-07T11:46:08.031Z,0.53
2017-01-07T11:49:12.944Z,0.50
2017-01-07T11:52:12.854Z,0.48
2017-01-07T11:55:18.180Z,0.52
2017-01-07T11:58:28.473Z,0.55
2017-01-07T12:01:33.473Z,0.50
2017-01-07T12:04:38.491Z,0.50
2017-01-07T12:07:43.444Z,0.54
2017-01-07T12:10:48.378Z,0.55
2017-01-07T12:13:48.334Z,0.52
2017-01-07T12:16:53.498Z,0.50
2017-01-07T12:20:04.002Z,0.50
2017-01-07T12:23:03.859Z,0.51
2017-01-07T12:26:14.199Z,0.48
2017-01-07T12:29:13.852Z,0.54
2017-01-07T12:32:24.177Z,0.60
2017-01-07T12:35:29.152Z,0.66
2017-01-07T12:38:29.254Z,0.70
2017-01-07T12:41:39.581Z,0.69
2017-01-07T12:44:44.581Z,0.71
2017-01-07T12:47:49.404Z,0.64
2017-01-07T12:50:54.355Z,0.57
2017-01-07T12:53:59.499Z,0.62
2017-01-07T12:57:04.610Z,0.69
2017-01-07T13:03:15.001Z,0.85
2017-01-07T13:06:14.962Z,0.88
2017-01-07T13:09:25.285Z,0.87
2017-01-07T13:12:25.353Z,0.87
2017-01-07T13:15:35.672Z,0.87
2017-01-07T13:18:35.537Z,0.87
2017-01-07T13:21:45.772Z,0.91
2017-01-07T13:27:56.131Z,0.00
2017-01-07T13:30:56.243Z,0.07
2017-01-07T13:34:06.286Z,0.11
2017-01-07T13:37:06.427Z,0.08
2017-01-07T13:43:22.301Z,0.13
2017-01-07T13:46:22.286Z,0.15
2017-01-07T13:49:32.693Z,0.19
2017-01-07T13:52:37.727Z,0.14
2017-01-07T13:55:42.654Z,0.18
2017-01-07T13:58:42.666Z,0.23
2017-01-07T14:01:47.452Z,0.27
2017-01-07T14:04:57.822Z,0.29
2017-01-07T14:08:02.965Z,0.36
2017-01-07T14:11:07.891Z,0.39
2017-01-07T14:14:07.854Z,0.43
2017-01-07T14:17:18.399Z,0.31
2017-01-07T14:20:18.419Z,0.29
2017-01-07T14:23:28.865Z,0.31
2017-01-07T14:26:33.749Z,0.33
2017-01-07T14:29:33.586Z,0.31
2017-01-07T14:32:43.989Z,0.27
2017-01-07T14:35:49.071Z,0.16
2017-01-07T14:38:54.133Z,0.08
2017-01-07T14:41:54.212Z,0.07
2017-01-07T14:45:04.611Z,0.09
2017-01-07T14:48:09.432Z,0.14
2017-01-07T14:51:14.510Z,0.19
2017-01-07T14:54:15.028Z,0.22
2017-01-07T15:00:25.805Z,0.37
2017-01-07T15:03:36.125Z,0.47
2017-01-07T15:06:41.327Z,0.56
2017-01-07T15:09:46.476Z,0.64
2017-01-07T15:12:51.456Z,0.64
2017-01-07T15:15:56.507Z,0.67
2017-01-07T15:19:01.433Z,0.64
2017-01-07T15:22:06.413Z,0.60
2017-01-07T15:25:06.486Z,0.60
2017-01-07T15:28:11.989Z,0.61
2017-01-07T15:31:17.505Z,0.68
2017-01-07T15:34:27.958Z,0.69
2017-01-07T15:37:33.147Z,0.71
2017-01-07T15:40:38.187Z,0.73
2017-01-07T15:43:43.163Z,0.76
2017-01-07T15:46:48.100Z,0.78
2017-01-07T15:49:48.172Z,0.80
2017-01-07T15:52:58.477Z,0.82
2017-01-07T15:56:03.495Z,0.82
2017-01-07T15:59:08.520Z,0.78
2017-01-07T16:02:13.779Z,0.80
2017-01-07T16:05:18.820Z,0.78
2017-01-07T16:08:23.848Z,0.79
2017-01-07T16:11:28.859Z,0.78
2017-01-07T16:14:33.908Z,0.85
2017-01-07T16:17:38.915Z,0.88
2017-01-07T16:20:44.035Z,0.94
2017-01-07T16:23:44.546Z,1.00
2017-01-07T16:26:49.825Z,0.98
2017-01-07T16:33:05.494Z,1.00
2017-01-07T16:39:15.670Z,0.98
2017-01-07T16:42:15.927Z,0.97
2017-01-07T16:45:26.298Z,0.95
2017-01-07T16:48:26.411Z,0.98
2017-01-07T16:51:36.975Z,1.00
2017-01-07T16:54:42.323Z,1.06
2017-01-07T16:57:42.479Z,1.08
2017-01-07T17:00:52.922Z,1.09
2017-01-07T17:03:57.878Z,1.14
2017-01-07T17:06:58.194Z,1.21
2017-01-07T17:10:08.643Z,1.25
2017-01-07T17:13:13.748Z,1.23
2017-01-07T17:16:18.762Z,1.22
2017-01-07T17:19:19.027Z,1.19
2017-01-07T17:22:29.494Z,1.15
2017-01-07T17:25:33.777Z,1.21
2017-01-07T17:28:38.940Z,1.29
2017-01-07T17:31:39.080Z,1.29
2017-01-07T17:37:54.987Z,1.26
2017-01-07T17:41:00.196Z,1.23
2017-01-07T17:44:00.075Z,1.19
2017-01-07T17:47:10.577Z,1.21
2017-01-07T17:50:15.728Z,1.23
2017-01-07T17:53:20.853Z,1.29
2017-01-07T17:56:26.004Z,1.37
2017-01-07T17:59:31.249Z,1.43
2017-01-07T18:02:36.372Z,1.49
2017-01-07T18:05:41.383Z,1.51
2017-01-07T18:08:46.539Z,1.53
2017-01-07T18:11:51.451Z,1.58
2017-01-07T18:14:56.528Z,1.62
2017-01-07T18:17:56.546Z,1.66
2017-01-07T18:21:07.105Z,1.69
2017-01-07T18:24:07.138Z,1.71
2017-01-07T18:27:17.693Z,1.76
2017-01-07T18:30:22.779Z,1.72
2017-01-07T18:33:27.968Z,1.68
2017-01-07T18:36:33.124Z,1.63
2017-01-07T18:39:38.239Z,1.57
2017-01-07T18:42:43.419Z,1.50
2017-01-07T18:45:43.554Z,1.47
2017-01-07T18:48:54.025Z,1.45
2017-01-07T18:51:59.285Z,1.41
2017-01-07T18:55:04.388Z,1.37
2017-01-07T18:58:09.496Z,1.35
2017-01-07T19:01:09.686Z,1.39
2017-01-07T19:04:14.822Z,1.43
2017-01-07T19:07:25.251Z,1.45
2017-01-07T19:10:30.388Z,1.48
2017-01-07T19:13:35.546Z,1.49
2017-01-07T19:16:40.811Z,1.56
2017-01-07T19:19:45.936Z,1.59
2017-01-07T19:22:51.164Z,1.53
2017-01-07T19:25:51.250Z,1.51
2017-01-07T19:28:56.703Z,1.58
2017-01-07T19:32:07.206Z,1.57
2017-01-07T19:35:12.212Z,1.55
2017-01-07T19:38:17.437Z,1.60
2017-01-07T19:41:22.667Z,1.58
2017-01-07T19:44:27.965Z,1.55
2017-01-07T19:50:38.312Z,1.63
2017-01-07T19:53:43.166Z,1.60
2017-01-07T19:56:48.196Z,1.59
2017-01-07T19:59:48.386Z,1.62
2017-01-07T20:02:53.671Z,1.64
2017-01-07T20:06:04.139Z,1.64
2017-01-07T20:09:09.353Z,1.65
2017-01-07T20:15:19.511Z,1.70
2017-01-07T20:18:19.779Z,1.72
2017-01-07T20:21:30.337Z,1.74
2017-01-07T20:24:35.661Z,1.77
2017-01-07T20:27:40.708Z,1.76
2017-01-07T20:30:45.925Z,1.76
2017-01-07T20:33:51.110Z,1.78
2017-01-07T20:36:51.206Z,1.80
2017-01-07T20:40:01.735Z,1.85
2017-01-07T20:43:06.590Z,1.86
2017-01-07T20:46:06.844Z,1.88
2017-01-07T20:49:12.355Z,1.90
2017-01-07T20:52:22.914Z,1.93
2017-01-07T20:55:28.080Z,1.99
2017-01-07T20:58:33.328Z,2.01
2017-01-07T21:01:38.476Z,2.04
2017-01-07T21:04:43.820Z,2.07
2017-01-07T21:07:49.020Z,2.11
2017-01-07T21:10:49.174Z,2.15
2017-01-07T21:13:59.776Z,2.14
2017-01-07T21:17:05.131Z,2.12
2017-01-07T21:20:10.345Z,2.11
2017-01-07T21:23:15.566Z,2.11
2017-01-07T21:26:20.726Z,2.10
2017-01-07T21:29:25.880Z,2.11
2017-01-07T21:32:31.129Z,2.13
2017-01-07T21:35:36.196Z,2.19
2017-01-07T21:38:41.478Z,2.19
2017-01-07T21:41:46.811Z,2.19
2017-01-07T21:44:52.109Z,2.18
2017-01-07T21:47:57.225Z,2.19
2017-01-07T21:51:02.446Z,2.24
2017-01-07T21:57:07.990Z,2.26
2017-01-07T22:00:18.547Z,2.27
2017-01-07T22:03:18.770Z,2.27
2017-01-07T22:06:29.373Z,2.27
2017-01-07T22:09:27.529Z,2.28
2017-01-07T22:12:40.030Z,2.30
2017-01-07T22:15:44.932Z,2.33
2017-01-07T22:18:45.031Z,2.36
2017-01-07T22:28:01.280Z,2.42
2017-01-07T22:31:06.783Z,2.47
2017-01-07T22:34:12.330Z,2.50
2017-01-07T22:37:17.932Z,2.50
2017-01-07T22:40:28.485Z,2.50
2017-01-07T22:43:33.706Z,2.51
2017-01-07T22:46:39.155Z,2.52
2017-01-07T22:49:39.366Z,2.52
2017-01-07T22:52:49.953Z,2.53
2017-01-07T22:55:55.203Z,2.57
2017-01-07T22:58:55.507Z,2.58
2017-01-07T23:02:06.877Z,2.57
2017-01-07T23:05:12.211Z,2.55
2017-01-07T23:08:17.056Z,2.56
2017-01-07T23:14:22.516Z,2.55
2017-01-07T23:17:33.184Z,2.54
2017-01-07T23:20:33.397Z,2.51
2017-01-07T23:23:39.003Z,2.48
2017-01-07T23:26:49.617Z,2.48
2017-01-07T23:29:49.649Z,2.43
2017-01-07T23:33:00.301Z,2.42
2017-01-07T23:36:05.350Z,2.44
2017-01-07T23:39:05.577Z,2.45
2017-01-07T23:42:16.239Z,2.46
2017-01-07T23:45:16.425Z,2.47
2017-01-07T23:48:26.784Z,2.52
2017-01-07T23:51:32.015Z,2.54
2017-01-07T23:54:37.270Z,2.53
2017-01-07T23:57:37.647Z,2.55
